Time;durP1;ratioP1;P1;durP2;ratioP2;P2;SDS_P1;SDS_P2;PMS_P1;PMS_P2;Temp;Humidity;BMP_temperature;BMP_pressure;BME280_temperature;BME280_humidity;BME280_pressure;Samples;Min_cycle;Max_cycle;Signal;HPM_P1;HPM_P2
2021/06/10 00:00:21;;;;;;;9.93;7.53;;;;;;;;;;5035369;28;20021;-62
2021/06/10 00:02:47;;;;;;;8.85;7.30;;;;;;;;;;5035297;28;20411;-62
2021/06/10 00:05:13;;;;;;;9.25;7.80;;;;;;;;;;5035632;28;20104;-62
2021/06/10 00:07:39;;;;;;;9.73;7.72;;;;;;;;;;5044184;28;20232;-62
2021/06/10 00:10:11;;;;;;;9.73;7.88;;;;;;;;;;5054549;28;20124;-62
2021/06/10 00:12:36;;;;;;;9.93;8.00;;;;;;;;;;5055537;28;20049;-63
2021/06/10 00:15:02;;;;;;;9.23;8.02;;;;;;;;;;5055811;28;20044;-62
2021/06/10 00:17:29;;;;;;;10.20;7.45;;;;;;;;;;5087444;28;20045;-62
2021/06/10 00:19:55;;;;;;;10.18;7.90;;;;;;;;;;5055510;28;20029;-62
2021/06/10 00:22:20;;;;;;;11.10;8.25;;;;;;;;;;5055503;28;20017;-62
2021/06/10 00:24:45;;;;;;;10.00;7.50;;;;;;;;;;5054944;28;20017;-62
2021/06/10 00:27:11;;;;;;;8.27;7.35;;;;;;;;;;5055414;28;20112;-63
2021/06/10 00:29:36;;;;;;;10.65;8.15;;;;;;;;;;5039575;28;20032;-63
2021/06/10 00:32:01;;;;;;;9.38;8.45;;;;;;;;;;5035102;28;20018;-63
2021/06/10 00:34:26;;;;;;;13.35;8.70;;;;;;;;;;5047836;28;20016;-62
2021/06/10 00:36:51;;;;;;;11.77;8.65;;;;;;;;;;5055216;28;20024;-62
2021/06/10 00:39:17;;;;;;;9.48;8.30;;;;;;;;;;5055004;28;20025;-62
2021/06/10 00:41:42;;;;;;;9.27;8.00;;;;;;;;;;5044304;28;20057;-62
2021/06/10 00:44:10;;;;;;;11.38;9.23;;;;;;;;;;5034920;28;20267;-62
2021/06/10 00:46:38;;;;;;;8.90;8.00;;;;;;;;;;5035291;28;20013;-66
2021/06/10 00:49:03;;;;;;;11.05;8.10;;;;;;;;;;5034395;28;20029;-66
2021/06/10 00:51:28;;;;;;;9.30;7.50;;;;;;;;;;5034412;28;20018;-67
2021/06/10 00:53:56;;;;;;;8.77;7.72;;;;;;;;;;5034775;28;20073;-65
2021/06/10 00:56:21;;;;;;;10.35;8.55;;;;;;;;;;5052382;28;20373;-64
2021/06/10 00:58:46;;;;;;;11.25;9.65;;;;;;;;;;5038318;28;20025;-66
2021/06/10 01:01:12;;;;;;;9.10;8.23;;;;;;;;;;5041475;28;20150;-65
2021/06/10 01:03:39;;;;;;;10.05;8.85;;;;;;;;;;5034351;28;20275;-65
2021/06/10 01:06:10;;;;;;;13.07;9.52;;;;;;;;;;5034291;28;20095;-68
2021/06/10 01:08:35;;;;;;;11.30;8.88;;;;;;;;;;5051512;28;20068;-67
2021/06/10 01:11:10;;;;;;;10.17;8.47;;;;;;;;;;5054031;28;20406;-66
2021/06/10 01:13:37;;;;;;;11.40;8.85;;;;;;;;;;5053271;28;20680;-67
2021/06/10 01:16:03;;;;;;;12.73;8.15;;;;;;;;;;5053563;28;20033;-68
2021/06/10 01:18:28;;;;;;;9.05;8.13;;;;;;;;;;5053973;28;20075;-66
2021/06/10 01:20:54;;;;;;;10.15;8.70;;;;;;;;;;5053821;28;20104;-66
2021/06/10 01:23:34;;;;;;;13.02;8.98;;;;;;;;;;5069433;28;20127;-66
2021/06/10 01:26:18;;;;;;;10.60;9.50;;;;;;;;;;5038007;28;20079;-67
2021/06/10 01:28:43;;;;;;;12.75;10.63;;;;;;;;;;5033437;28;20091;-66
2021/06/10 01:31:09;;;;;;;11.48;10.30;;;;;;;;;;5047090;28;20446;-66
2021/06/10 01:33:39;;;;;;;10.90;9.68;;;;;;;;;;5053186;28;20029;-66
2021/06/10 01:36:08;;;;;;;12.35;11.15;;;;;;;;;;5053171;28;20354;-66
2021/06/10 01:38:34;;;;;;;13.35;11.13;;;;;;;;;;5050424;28;20033;-67
2021/06/10 01:41:00;;;;;;;12.88;10.65;;;;;;;;;;5033270;28;20021;-66
2021/06/10 01:43:35;;;;;;;13.27;10.65;;;;;;;;;;5033255;28;20473;-66
2021/06/10 01:46:03;;;;;;;18.83;12.30;;;;;;;;;;5033514;28;20060;-66
2021/06/10 01:48:29;;;;;;;12.25;11.05;;;;;;;;;;5044026;28;20079;-66
2021/06/10 01:50:58;;;;;;;11.98;10.75;;;;;;;;;;5053099;28;20021;-66
2021/06/10 01:53:26;;;;;;;12.55;11.13;;;;;;;;;;5050932;28;20162;-66
2021/06/10 01:55:54;;;;;;;17.83;12.32;;;;;;;;;;5053042;28;20240;-66
2021/06/10 01:58:19;;;;;;;16.25;12.45;;;;;;;;;;5047511;28;20024;-66
2021/06/10 02:00:45;;;;;;;15.20;12.40;;;;;;;;;;5040917;28;20424;-67
2021/06/10 02:03:11;;;;;;;14.30;11.50;;;;;;;;;;5052391;28;20095;-66
2021/06/10 02:05:40;;;;;;;14.10;11.40;;;;;;;;;;5052073;28;20025;-65
2021/06/10 02:08:09;;;;;;;15.45;12.20;;;;;;;;;;5052029;28;20116;-66
2021/06/10 02:10:35;;;;;;;15.98;12.38;;;;;;;;;;5053067;28;20029;-66
2021/06/10 02:13:00;;;;;;;21.73;12.13;;;;;;;;;;5042698;28;20032;-67
2021/06/10 02:15:25;;;;;;;13.38;11.95;;;;;;;;;;5039544;28;20040;-67
2021/06/10 02:17:50;;;;;;;12.80;11.50;;;;;;;;;;5052863;28;20076;-67
2021/06/10 02:20:17;;;;;;;12.82;11.63;;;;;;;;;;5053085;28;20082;-66
2021/06/10 02:22:45;;;;;;;15.80;12.27;;;;;;;;;;5053185;28;20117;-67
2021/06/10 02:25:11;;;;;;;12.60;11.40;;;;;;;;;;5058495;28;20021;-66
2021/06/10 02:27:36;;;;;;;13.68;12.30;;;;;;;;;;5059703;28;20321;-66
2021/06/10 02:30:05;;;;;;;13.52;12.13;;;;;;;;;;5059617;28;20025;-66
2021/06/10 02:32:30;;;;;;;13.40;12.02;;;;;;;;;;5058688;28;20025;-66
2021/06/10 02:34:56;;;;;;;13.37;12.13;;;;;;;;;;5059524;28;20021;-66
2021/06/10 02:37:21;;;;;;;15.10;13.60;;;;;;;;;;5059542;28;20248;-66
2021/06/10 02:39:47;;;;;;;15.30;13.70;;;;;;;;;;5055155;28;20036;-66
2021/06/10 02:42:13;;;;;;;14.48;13.00;;;;;;;;;;5042321;28;20083;-66
2021/06/10 02:44:42;;;;;;;15.00;12.82;;;;;;;;;;5038828;28;20030;-67
2021/06/10 02:47:08;;;;;;;14.88;13.35;;;;;;;;;;5039484;28;20030;-66
2021/06/10 02:49:34;;;;;;;17.90;13.43;;;;;;;;;;5041444;28;20132;-66
2021/06/10 02:51:59;;;;;;;13.68;12.27;;;;;;;;;;5059413;28;20017;-67
2021/06/10 02:54:25;;;;;;;15.73;12.07;;;;;;;;;;5059528;28;20075;-66
2021/06/10 02:56:53;;;;;;;14.30;12.18;;;;;;;;;;5058742;28;20021;-66
2021/06/10 02:59:19;;;;;;;13.73;11.85;;;;;;;;;;5059190;28;20052;-66
2021/06/10 03:01:45;;;;;;;15.25;11.23;;;;;;;;;;5058645;28;20053;-66
2021/06/10 03:04:13;;;;;;;13.15;11.85;;;;;;;;;;5059355;28;20048;-66
2021/06/10 03:06:39;;;;;;;14.63;11.85;;;;;;;;;;5058406;28;20025;-66
2021/06/10 03:09:06;;;;;;;15.83;12.27;;;;;;;;;;5038046;28;20048;-66
2021/06/10 03:11:36;;;;;;;13.77;12.38;;;;;;;;;;5039363;28;20397;-67
2021/06/10 03:14:02;;;;;;;12.57;11.27;;;;;;;;;;5039930;28;20036;-66
2021/06/10 03:16:29;;;;;;;12.63;11.32;;;;;;;;;;5038652;28;20022;-66
2021/06/10 03:18:56;;;;;;;13.63;12.20;;;;;;;;;;5039183;28;20021;-66
2021/06/10 03:21:23;;;;;;;13.00;11.68;;;;;;;;;;5038728;28;20089;-66
2021/06/10 03:23:49;;;;;;;13.23;11.85;;;;;;;;;;5038526;28;20028;-67
2021/06/10 03:26:15;;;;;;;12.23;11.13;;;;;;;;;;5039073;28;20350;-67
2021/06/10 03:28:40;;;;;;;14.63;12.07;;;;;;;;;;5039157;28;20098;-66
2021/06/10 03:31:06;;;;;;;12.60;11.40;;;;;;;;;;5039160;28;20027;-66
2021/06/10 03:33:33;;;;;;;12.75;11.48;;;;;;;;;;5053884;28;20032;-66
2021/06/10 03:36:01;;;;;;;11.77;10.55;;;;;;;;;;5054995;28;20299;-66
2021/06/10 03:38:29;;;;;;;15.32;11.13;;;;;;;;;;5054031;28;20029;-66
2021/06/10 03:40:57;;;;;;;13.85;12.35;;;;;;;;;;5052415;28;20413;-66
2021/06/10 03:43:23;;;;;;;14.13;12.65;;;;;;;;;;5054176;28;20655;-67
2021/06/10 03:45:49;;;;;;;13.77;12.05;;;;;;;;;;5055291;28;20176;-66
2021/06/10 03:48:17;;;;;;;13.00;11.73;;;;;;;;;;5054334;28;20032;-67
2021/06/10 03:50:43;;;;;;;16.05;12.25;;;;;;;;;;5055128;28;20021;-66
2021/06/10 03:53:08;;;;;;;13.77;12.18;;;;;;;;;;5052718;28;20009;-66
2021/06/10 03:55:34;;;;;;;14.70;13.10;;;;;;;;;;5055297;28;20039;-66
2021/06/10 03:58:00;;;;;;;14.70;13.23;;;;;;;;;;5054447;28;20020;-66
2021/06/10 04:00:25;;;;;;;14.05;12.10;;;;;;;;;;5055062;28;20016;-66
2021/06/10 04:02:51;;;;;;;13.50;12.07;;;;;;;;;;5051826;28;20021;-67
2021/06/10 04:05:18;;;;;;;17.17;12.25;;;;;;;;;;5054237;28;20021;-67
2021/06/10 04:07:47;;;;;;;13.00;10.98;;;;;;;;;;5052452;28;20100;-66
2021/06/10 04:10:12;;;;;;;20.27;12.27;;;;;;;;;;5052448;28;20072;-67
2021/06/10 04:12:37;;;;;;;14.57;13.07;;;;;;;;;;5065889;28;20352;-67
2021/06/10 04:15:03;;;;;;;16.60;14.40;;;;;;;;;;5050764;28;20012;-67
2021/06/10 04:17:29;;;;;;;15.52;13.45;;;;;;;;;;5046012;28;20271;-67
2021/06/10 04:19:54;;;;;;;15.02;13.52;;;;;;;;;;5049007;28;20020;-67
2021/06/10 04:22:19;;;;;;;16.23;14.50;;;;;;;;;;5050962;28;20028;-73
2021/06/10 04:24:44;;;;;;;15.70;14.10;;;;;;;;;;5035375;28;20310;-67
2021/06/10 04:27:12;;;;;;;17.52;14.85;;;;;;;;;;5035385;28;20056;-67
2021/06/10 04:29:38;;;;;;;16.67;13.52;;;;;;;;;;5053281;28;20025;-67
2021/06/10 04:32:03;;;;;;;15.90;14.37;;;;;;;;;;5046159;28;20060;-67
2021/06/10 04:34:29;;;;;;;18.77;13.65;;;;;;;;;;5054795;28;20638;-67
2021/06/10 04:36:54;;;;;;;16.58;13.77;;;;;;;;;;5035845;28;20021;-67
2021/06/10 04:39:19;;;;;;;14.68;13.23;;;;;;;;;;5034703;28;20093;-67
2021/06/10 04:41:46;;;;;;;15.07;12.70;;;;;;;;;;5049793;28;20017;-68
2021/06/10 04:44:12;;;;;;;14.95;13.38;;;;;;;;;;5054717;28;20086;-69
2021/06/10 04:46:37;;;;;;;14.35;12.20;;;;;;;;;;5051922;28;20016;-79
2021/06/10 04:49:03;;;;;;;13.55;12.23;;;;;;;;;;5044305;28;20088;-76
2021/06/10 04:51:28;;;;;;;14.10;12.63;;;;;;;;;;5039522;28;20013;-75
2021/06/10 04:53:54;;;;;;;12.98;11.68;;;;;;;;;;5043182;28;20041;-75
2021/06/10 04:56:20;;;;;;;14.80;12.40;;;;;;;;;;5039272;28;20553;-75
2021/06/10 04:58:47;;;;;;;13.15;11.07;;;;;;;;;;5042678;28;20021;-75
2021/06/10 05:01:13;;;;;;;15.15;11.95;;;;;;;;;;5047340;28;20122;-75
2021/06/10 05:03:38;;;;;;;14.68;11.52;;;;;;;;;;5035522;28;20051;-76
2021/06/10 05:06:06;;;;;;;12.50;11.23;;;;;;;;;;5051907;28;20033;-74
2021/06/10 05:08:32;;;;;;;12.98;10.50;;;;;;;;;;5041366;28;20057;-75
2021/06/10 05:11:00;;;;;;;14.20;10.55;;;;;;;;;;5050023;28;20029;-76
2021/06/10 05:13:25;;;;;;;12.38;10.05;;;;;;;;;;5053971;28;20025;-72
2021/06/10 05:15:50;;;;;;;13.55;11.02;;;;;;;;;;5053982;28;20027;-72
2021/06/10 05:18:16;;;;;;;12.43;10.60;;;;;;;;;;5053783;28;20025;-74
2021/06/10 05:20:41;;;;;;;11.35;10.25;;;;;;;;;;5053287;28;20274;-73
2021/06/10 05:23:06;;;;;;;12.70;10.40;;;;;;;;;;5050505;28;20020;-75
2021/06/10 05:25:32;;;;;;;11.95;10.90;;;;;;;;;;5033910;28;20272;-73
2021/06/10 05:27:57;;;;;;;12.88;11.57;;;;;;;;;;5032934;28;20057;-72
2021/06/10 05:30:22;;;;;;;15.57;11.18;;;;;;;;;;5032783;28;20026;-73
2021/06/10 05:32:49;;;;;;;12.75;11.38;;;;;;;;;;5046635;28;20442;-71
2021/06/10 05:35:14;;;;;;;15.45;12.27;;;;;;;;;;5049272;28;20035;-70
2021/06/10 05:37:39;;;;;;;15.02;12.10;;;;;;;;;;5053182;28;20025;-70
2021/06/10 05:40:06;;;;;;;13.25;11.20;;;;;;;;;;5052470;28;20616;-71
2021/06/10 05:42:31;;;;;;;14.57;11.40;;;;;;;;;;5053027;28;20033;-70
2021/06/10 05:44:59;;;;;;;12.15;10.93;;;;;;;;;;5053749;28;20032;-70
2021/06/10 05:47:27;;;;;;;14.15;10.82;;;;;;;;;;5052815;28;20032;-69
2021/06/10 05:49:52;;;;;;;15.15;11.60;;;;;;;;;;5053219;28;20029;-69
2021/06/10 05:52:23;;;;;;;18.88;11.32;;;;;;;;;;5052436;28;20354;-69
2021/06/10 05:54:48;;;;;;;18.38;10.60;;;;;;;;;;5053624;28;20028;-69
2021/06/10 05:57:14;;;;;;;13.87;10.27;;;;;;;;;;5056307;28;20013;-70
2021/06/10 05:59:43;;;;;;;13.40;10.57;;;;;;;;;;5052209;28;20270;-71
2021/06/10 06:02:08;;;;;;;13.93;9.80;;;;;;;;;;5052974;28;20032;-71
2021/06/10 06:04:33;;;;;;;10.73;8.67;;;;;;;;;;5052310;28;20021;-72
2021/06/10 06:07:01;;;;;;;10.70;9.13;;;;;;;;;;5053174;28;20272;-72
2021/06/10 06:09:27;;;;;;;11.68;9.05;;;;;;;;;;5052896;28;20291;-75
2021/06/10 06:11:54;;;;;;;13.43;9.47;;;;;;;;;;5064768;28;20020;-72
2021/06/10 06:14:26;;;;;;;9.25;8.25;;;;;;;;;;5053888;28;20372;-71
2021/06/10 06:16:52;;;;;;;11.40;7.60;;;;;;;;;;5057481;28;20017;-71
2021/06/10 06:19:20;;;;;;;10.93;8.02;;;;;;;;;;5052138;28;20437;-71
2021/06/10 06:21:47;;;;;;;10.32;7.53;;;;;;;;;;5051022;28;20103;-73
2021/06/10 06:24:15;;;;;;;10.02;7.63;;;;;;;;;;5051752;28;20025;-73
2021/06/10 06:26:43;;;;;;;8.98;7.15;;;;;;;;;;5055219;28;20036;-72
2021/06/10 06:29:11;;;;;;;11.07;6.80;;;;;;;;;;5058457;28;20039;-72
2021/06/10 06:31:37;;;;;;;8.15;6.97;;;;;;;;;;5052528;28;20017;-72
2021/06/10 06:34:03;;;;;;;11.52;7.47;;;;;;;;;;5051395;28;20465;-72
2021/06/10 06:36:28;;;;;;;7.32;6.43;;;;;;;;;;5060213;28;20055;-72
2021/06/10 06:38:54;;;;;;;8.13;6.70;;;;;;;;;;5049332;28;20053;-66
2021/06/10 06:41:23;;;;;;;12.43;6.85;;;;;;;;;;5060627;28;20434;-65
2021/06/10 06:43:49;;;;;;;8.35;6.20;;;;;;;;;;5066981;28;20025;-66
2021/06/10 06:46:16;;;;;;;6.95;6.20;;;;;;;;;;5055713;28;20315;-65
2021/06/10 06:48:42;;;;;;;10.80;6.57;;;;;;;;;;5063194;28;20037;-66
2021/06/10 06:51:09;;;;;;;6.82;6.13;;;;;;;;;;5061550;28;20453;-65
2021/06/10 06:53:35;;;;;;;11.43;6.15;;;;;;;;;;5059871;28;20032;-65
2021/06/10 06:56:01;;;;;;;10.13;6.03;;;;;;;;;;5067588;28;20028;-63
2021/06/10 06:58:26;;;;;;;9.57;5.38;;;;;;;;;;5055696;28;20013;-63
2021/06/10 07:00:52;;;;;;;9.85;5.82;;;;;;;;;;5058504;28;20409;-65
2021/06/10 07:03:18;;;;;;;8.13;5.97;;;;;;;;;;5051938;28;20163;-69
2021/06/10 07:05:45;;;;;;;12.82;5.50;;;;;;;;;;5051852;28;20025;-66
2021/06/10 07:08:11;;;;;;;11.60;5.28;;;;;;;;;;5050896;28;20029;-68
2021/06/10 07:10:36;;;;;;;9.55;5.97;;;;;;;;;;5051679;28;20099;-69
2021/06/10 07:13:02;;;;;;;10.55;5.75;;;;;;;;;;5089780;28;20441;-70
2021/06/10 07:15:27;;;;;;;12.57;5.65;;;;;;;;;;5052060;28;20019;-69
2021/06/10 07:17:52;;;;;;;13.57;5.85;;;;;;;;;;5057712;28;20449;-69
2021/06/10 07:20:17;;;;;;;8.17;5.60;;;;;;;;;;5071180;28;20027;-69
2021/06/10 07:22:43;;;;;;;11.43;5.35;;;;;;;;;;5075802;28;20266;-69
2021/06/10 07:25:09;;;;;;;10.43;5.53;;;;;;;;;;5075857;28;20020;-70
2021/06/10 07:27:34;;;;;;;9.63;5.65;;;;;;;;;;5073884;28;20328;-69
2021/06/10 07:30:00;;;;;;;10.55;5.63;;;;;;;;;;5055121;28;20039;-60
2021/06/10 07:32:25;;;;;;;10.75;5.43;;;;;;;;;;5058078;28;20097;-59
2021/06/10 07:34:50;;;;;;;9.10;6.13;;;;;;;;;;5068930;28;20104;-60
2021/06/10 07:37:16;;;;;;;13.23;6.97;;;;;;;;;;5071190;28;20049;-62
2021/06/10 07:39:42;;;;;;;9.35;5.70;;;;;;;;;;5068598;28;20035;-62
2021/06/10 07:42:07;;;;;;;9.15;5.32;;;;;;;;;;5070656;28;20025;-62
2021/06/10 07:44:33;;;;;;;16.08;8.38;;;;;;;;;;5055640;28;20365;-61
2021/06/10 07:47:01;;;;;;;13.05;7.32;;;;;;;;;;5075428;28;20028;-61
2021/06/10 07:49:26;;;;;;;10.02;5.95;;;;;;;;;;5074005;28;20486;-61
2021/06/10 07:51:54;;;;;;;10.27;6.97;;;;;;;;;;5091519;28;20067;-61
2021/06/10 07:54:19;;;;;;;8.60;6.93;;;;;;;;;;5069019;28;20017;-62
2021/06/10 07:56:45;;;;;;;13.15;7.47;;;;;;;;;;5063541;28;20038;-61
2021/06/10 07:59:10;;;;;;;10.52;7.32;;;;;;;;;;5066405;28;20058;-61
2021/06/10 08:01:39;;;;;;;9.20;8.00;;;;;;;;;;5067172;28;20124;-61
2021/06/10 08:04:09;;;;;;;13.88;9.90;;;;;;;;;;5058838;28;20025;-62
2021/06/10 08:06:34;;;;;;;15.00;7.60;;;;;;;;;;5040631;28;20348;-61
2021/06/10 08:08:59;;;;;;;14.45;9.18;;;;;;;;;;5062119;28;20036;-62
2021/06/10 08:11:24;;;;;;;15.52;10.43;;;;;;;;;;5064564;28;20438;-61
2021/06/10 08:13:51;;;;;;;12.02;8.50;;;;;;;;;;5058535;28;20136;-62
2021/06/10 08:16:16;;;;;;;14.23;9.35;;;;;;;;;;5068289;28;20027;-61
2021/06/10 08:18:41;;;;;;;14.98;8.70;;;;;;;;;;5058044;28;20025;-61
2021/06/10 08:21:06;;;;;;;12.67;8.37;;;;;;;;;;5066006;28;20446;-61
2021/06/10 08:23:32;;;;;;;16.65;8.88;;;;;;;;;;5081755;28;20266;-62
2021/06/10 08:26:00;;;;;;;15.43;9.52;;;;;;;;;;5066928;28;20021;-62
2021/06/10 08:28:25;;;;;;;14.93;10.70;;;;;;;;;;5059259;28;20032;-61
2021/06/10 08:30:56;;;;;;;15.63;9.20;;;;;;;;;;5070657;28;20024;-62
2021/06/10 08:33:22;;;;;;;13.07;8.70;;;;;;;;;;5065296;28;20077;-61
2021/06/10 08:35:47;;;;;;;15.13;8.77;;;;;;;;;;5074427;28;20012;-61
2021/06/10 08:38:13;;;;;;;14.63;8.32;;;;;;;;;;5073885;28;20039;-61
2021/06/10 08:40:38;;;;;;;12.63;8.70;;;;;;;;;;5058539;28;20024;-61
2021/06/10 08:43:04;;;;;;;15.38;9.13;;;;;;;;;;5066447;28;20009;-61
2021/06/10 08:45:32;;;;;;;16.27;7.43;;;;;;;;;;5065681;28;20103;-61
2021/06/10 08:47:58;;;;;;;12.77;7.13;;;;;;;;;;5057028;28;20017;-63
2021/06/10 08:50:27;;;;;;;15.10;7.20;;;;;;;;;;5071000;28;20031;-64
2021/06/10 08:52:58;;;;;;;14.82;7.72;;;;;;;;;;5078465;28;20032;-65
2021/06/10 08:55:25;;;;;;;10.75;8.52;;;;;;;;;;5078939;28;20013;-66
2021/06/10 08:57:51;;;;;;;12.75;8.18;;;;;;;;;;5043556;28;20030;-65
2021/06/10 09:00:18;;;;;;;13.57;8.00;;;;;;;;;;5068181;28;20035;-65
2021/06/10 09:02:50;;;;;;;13.30;7.80;;;;;;;;;;5053681;28;20037;-65
2021/06/10 09:05:17;;;;;;;10.25;6.32;;;;;;;;;;5054115;28;20036;-64
2021/06/10 09:07:46;;;;;;;10.63;6.35;;;;;;;;;;5067298;28;20024;-63
2021/06/10 09:10:12;;;;;;;12.20;6.43;;;;;;;;;;5057155;28;20041;-64
2021/06/10 09:12:47;;;;;;;8.10;5.50;;;;;;;;;;5090206;28;20026;-65
2021/06/10 09:15:13;;;;;;;8.95;6.35;;;;;;;;;;5065195;28;20025;-63
2021/06/10 09:17:39;;;;;;;8.52;5.50;;;;;;;;;;5063612;28;20032;-64
2021/06/10 09:20:20;;;;;;;9.55;6.32;;;;;;;;;;5058036;28;20021;-64
2021/06/10 09:22:49;;;;;;;10.15;5.63;;;;;;;;;;5056533;28;20412;-65
2021/06/10 09:25:23;;;;;;;8.98;5.70;;;;;;;;;;5054853;28;20037;-65
2021/06/10 09:27:59;;;;;;;10.32;5.00;;;;;;;;;;5059164;28;20109;-66
2021/06/10 09:30:33;;;;;;;7.97;5.13;;;;;;;;;;5055305;28;20025;-65
2021/06/10 09:33:00;;;;;;;6.03;3.97;;;;;;;;;;5065946;28;20048;-66
2021/06/10 09:35:30;;;;;;;9.82;5.40;;;;;;;;;;5061082;28;20092;-65
2021/06/10 09:38:05;;;;;;;11.15;6.32;;;;;;;;;;5068302;28;20031;-65
2021/06/10 09:40:33;;;;;;;11.98;6.63;;;;;;;;;;5055693;28;20016;-64
2021/06/10 09:43:00;;;;;;;10.77;6.25;;;;;;;;;;5061922;28;20052;-64
2021/06/10 09:45:29;;;;;;;13.35;6.57;;;;;;;;;;5057596;28;20013;-64
2021/06/10 09:48:01;;;;;;;10.75;6.38;;;;;;;;;;5058032;28;20024;-64
2021/06/10 09:50:27;;;;;;;7.38;5.60;;;;;;;;;;5055450;28;20033;-64
2021/06/10 09:52:54;;;;;;;8.52;4.32;;;;;;;;;;5053972;28;20013;-63
2021/06/10 09:55:41;;;;;;;7.10;3.65;;;;;;;;;;5051403;28;20412;-64
2021/06/10 09:58:06;;;;;;;6.00;4.65;;;;;;;;;;5049993;28;20017;-65
2021/06/10 10:00:31;;;;;;;6.72;4.63;;;;;;;;;;5050567;28;20032;-65
2021/06/10 10:02:57;;;;;;;14.88;7.45;;;;;;;;;;5050135;28;20389;-64
2021/06/10 10:05:24;;;;;;;15.17;8.37;;;;;;;;;;5050125;28;20025;-64
2021/06/10 10:07:50;;;;;;;7.50;5.53;;;;;;;;;;5054179;28;20638;-63
2021/06/10 10:10:18;;;;;;;7.53;5.00;;;;;;;;;;5053720;28;20135;-64
2021/06/10 10:12:47;;;;;;;8.25;5.18;;;;;;;;;;5048502;28;20024;-64
2021/06/10 10:15:15;;;;;;;12.07;4.85;;;;;;;;;;5052858;28;20021;-63
2021/06/10 10:17:40;;;;;;;10.63;5.75;;;;;;;;;;5055380;28;20531;-63
2021/06/10 10:20:09;;;;;;;9.60;5.20;;;;;;;;;;5050084;28;20024;-63
2021/06/10 10:22:38;;;;;;;10.82;5.30;;;;;;;;;;5051937;28;20464;-63
2021/06/10 10:25:05;;;;;;;9.90;5.38;;;;;;;;;;5053736;28;20446;-64
2021/06/10 10:27:36;;;;;;;5.93;3.80;;;;;;;;;;5052472;28;20043;-65
2021/06/10 10:30:02;;;;;;;9.27;4.57;;;;;;;;;;5050439;28;20103;-65
2021/06/10 10:32:28;;;;;;;5.80;4.78;;;;;;;;;;5053355;28;20016;-63
2021/06/10 10:34:59;;;;;;;5.47;3.33;;;;;;;;;;5053508;28;20057;-64
2021/06/10 10:37:26;;;;;;;7.10;2.70;;;;;;;;;;5051627;28;20388;-65
2021/06/10 10:39:53;;;;;;;4.97;1.92;;;;;;;;;;5053371;28;20086;-64
2021/06/10 10:42:52;;;;;;;5.57;2.72;;;;;;;;;;5053438;28;20124;-64
2021/06/10 10:45:24;;;;;;;5.15;2.15;;;;;;;;;;5042299;28;20052;-63
2021/06/10 10:50:34;;;;;;;3.45;2.20;;;;;;;;;;5056430;28;20032;-63
2021/06/10 10:53:02;;;;;;;5.65;1.98;;;;;;;;;;5060095;28;20025;-64
2021/06/10 10:55:31;;;;;;;11.00;2.33;;;;;;;;;;5056399;28;20446;-64
2021/06/10 10:58:07;;;;;;;4.78;2.03;;;;;;;;;;5056343;28;20028;-64
2021/06/10 11:00:50;;;;;;;3.70;1.85;;;;;;;;;;5060504;28;20021;-63
2021/06/10 11:03:18;;;;;;;4.57;2.28;;;;;;;;;;5056561;28;20343;-64
2021/06/10 11:05:44;;;;;;;5.80;2.47;;;;;;;;;;5062371;28;20085;-64
2021/06/10 11:08:12;;;;;;;4.18;2.20;;;;;;;;;;5074807;28;20406;-63
2021/06/10 11:10:40;;;;;;;4.50;2.60;;;;;;;;;;5063773;28;20037;-65
2021/06/10 11:13:14;;;;;;;5.10;2.55;;;;;;;;;;5051578;28;20017;-64
2021/06/10 11:15:45;;;;;;;3.33;2.13;;;;;;;;;;5076328;28;20013;-65
2021/06/10 11:18:11;;;;;;;4.75;2.00;;;;;;;;;;5076063;28;20016;-65
2021/06/10 11:20:36;;;;;;;3.05;2.05;;;;;;;;;;5069757;28;22003;-64
2021/06/10 11:23:23;;;;;;;4.83;2.10;;;;;;;;;;5036339;28;20030;-63
2021/06/10 11:25:53;;;;;;;8.48;1.92;;;;;;;;;;5045844;28;20027;-65
2021/06/10 11:28:26;;;;;;;7.00;1.83;;;;;;;;;;5057986;28;20040;-69
2021/06/10 11:30:54;;;;;;;6.20;2.35;;;;;;;;;;5055439;28;20079;-70
2021/06/10 11:33:19;;;;;;;5.32;2.15;;;;;;;;;;5054993;28;20020;-66
2021/06/10 11:35:53;;;;;;;5.73;2.50;;;;;;;;;;5040780;28;20020;-66
2021/06/10 11:38:27;;;;;;;2.65;2.03;;;;;;;;;;5053868;28;20013;-65
2021/06/10 11:40:57;;;;;;;3.15;1.70;;;;;;;;;;5053477;28;20025;-65
2021/06/10 11:43:23;;;;;;;3.92;2.15;;;;;;;;;;5055772;28;20021;-64
2021/06/10 11:45:57;;;;;;;4.38;2.40;;;;;;;;;;5055911;28;20025;-64
2021/06/10 11:48:35;;;;;;;4.57;2.13;;;;;;;;;;5055656;28;20036;-65
2021/06/10 11:51:01;;;;;;;3.75;2.20;;;;;;;;;;5055581;28;20032;-65
2021/06/10 11:53:30;;;;;;;5.32;1.60;;;;;;;;;;5055717;28;20017;-65
2021/06/10 11:55:58;;;;;;;4.32;1.88;;;;;;;;;;5055389;28;20028;-64
2021/06/10 11:58:28;;;;;;;3.70;1.60;;;;;;;;;;5056556;28;20021;-63
2021/06/10 12:00:54;;;;;;;2.42;1.20;;;;;;;;;;5055539;28;20020;-63
2021/06/10 12:03:20;;;;;;;3.20;1.40;;;;;;;;;;5054930;28;20090;-65
2021/06/10 12:05:52;;;;;;;4.72;1.70;;;;;;;;;;5055161;28;20105;-65
2021/06/10 12:08:20;;;;;;;3.33;1.70;;;;;;;;;;5058796;28;20089;-65
2021/06/10 12:10:47;;;;;;;7.85;1.80;;;;;;;;;;5087856;28;20025;-65
2021/06/10 12:13:12;;;;;;;7.40;2.05;;;;;;;;;;5054417;28;20393;-64
2021/06/10 12:15:44;;;;;;;6.80;2.10;;;;;;;;;;5054990;28;20017;-65
2021/06/10 12:18:11;;;;;;;4.30;2.40;;;;;;;;;;5044471;28;20021;-64
2021/06/10 12:20:37;;;;;;;5.88;1.90;;;;;;;;;;5053392;28;20021;-65
2021/06/10 12:23:08;;;;;;;5.22;1.83;;;;;;;;;;5055335;28;20108;-63
2021/06/10 12:25:34;;;;;;;3.78;2.00;;;;;;;;;;5048559;28;20033;-65
2021/06/10 12:28:00;;;;;;;12.70;2.08;;;;;;;;;;5035347;28;20017;-65
2021/06/10 12:30:37;;;;;;;3.67;1.80;;;;;;;;;;5034759;28;20355;-64
2021/06/10 12:33:21;;;;;;;5.13;1.88;;;;;;;;;;5035292;28;20095;-65
2021/06/10 12:35:50;;;;;;;8.07;1.98;;;;;;;;;;5035268;28;20022;-65
2021/06/10 12:38:18;;;;;;;3.33;1.80;;;;;;;;;;5054817;28;20013;-65
2021/06/10 12:40:46;;;;;;;5.43;2.20;;;;;;;;;;5053432;28;20424;-65
2021/06/10 12:43:17;;;;;;;6.05;2.15;;;;;;;;;;5035025;28;20030;-66
2021/06/10 12:45:45;;;;;;;6.63;1.85;;;;;;;;;;5034960;28;20033;-66
2021/06/10 12:48:31;;;;;;;4.70;1.60;;;;;;;;;;5058213;28;20151;-67
2021/06/10 12:51:35;;;;;;;6.18;2.17;;;;;;;;;;5053822;28;20020;-65
2021/06/10 12:54:00;;;;;;;3.45;1.60;;;;;;;;;;5009560;28;20458;-64
2021/06/10 12:56:32;;;;;;;2.60;1.80;;;;;;;;;;5012552;28;20064;-65
2021/06/10 12:58:57;;;;;;;2.55;1.70;;;;;;;;;;5023580;28;20037;-66
2021/06/10 13:01:24;;;;;;;5.47;1.70;;;;;;;;;;5041079;28;20639;-66
2021/06/10 13:03:50;;;;;;;4.75;1.50;;;;;;;;;;5054837;28;20344;-66
2021/06/10 13:06:17;;;;;;;9.45;1.90;;;;;;;;;;5054277;28;20049;-66
2021/06/10 13:08:43;;;;;;;4.70;1.48;;;;;;;;;;5054283;28;20053;-65
2021/06/10 13:11:17;;;;;;;2.20;1.50;;;;;;;;;;5053661;28;20043;-66
2021/06/10 13:13:43;;;;;;;3.47;1.80;;;;;;;;;;5054227;28;20017;-66
2021/06/10 13:16:15;;;;;;;3.28;1.42;;;;;;;;;;5054016;28;20013;-66
2021/06/10 13:18:40;;;;;;;4.00;1.95;;;;;;;;;;5042525;28;20041;-65
2021/06/10 13:21:14;;;;;;;8.52;1.80;;;;;;;;;;5034250;28;20060;-66
2021/06/10 13:23:58;;;;;;;3.90;1.67;;;;;;;;;;5034480;28;20397;-67
2021/06/10 13:26:29;;;;;;;5.72;1.80;;;;;;;;;;5040172;28;20036;-66
2021/06/10 13:28:55;;;;;;;4.88;1.77;;;;;;;;;;5054696;28;20108;-66
2021/06/10 13:31:34;;;;;;;3.90;1.73;;;;;;;;;;5054182;28;20405;-67
2021/06/10 13:34:07;;;;;;;3.88;1.70;;;;;;;;;;5060059;28;20017;-67
2021/06/10 13:36:42;;;;;;;4.35;1.55;;;;;;;;;;5054388;28;20016;-67
2021/06/10 13:39:07;;;;;;;;;;;;;;;;;;5053111;28;20052;-67
2021/06/10 13:41:34;;;;;;;8.18;1.65;;;;;;;;;;5052533;28;19964;-66
2021/06/10 13:44:02;;;;;;;4.10;1.65;;;;;;;;;;5053101;28;20020;-68
2021/06/10 13:46:32;;;;;;;6.75;1.60;;;;;;;;;;5052542;28;20025;-66
2021/06/10 13:48:57;;;;;;;5.47;2.10;;;;;;;;;;5053027;28;20021;-68
2021/06/10 13:51:25;;;;;;;5.05;1.63;;;;;;;;;;5052850;28;20493;-66
2021/06/10 13:53:50;;;;;;;4.15;1.60;;;;;;;;;;5053111;28;20057;-68
2021/06/10 13:56:17;;;;;;;4.68;1.88;;;;;;;;;;5052664;28;20063;-68
2021/06/10 13:58:47;;;;;;;5.15;1.60;;;;;;;;;;5052097;28;20028;-68
2021/06/10 14:01:14;;;;;;;7.18;1.60;;;;;;;;;;5050989;28;20025;-67
2021/06/10 14:03:40;;;;;;;5.20;1.88;;;;;;;;;;5052431;28;20028;-67
2021/06/10 14:06:05;;;;;;;4.13;1.73;;;;;;;;;;5048078;28;20024;-67
2021/06/10 14:08:32;;;;;;;6.38;1.75;;;;;;;;;;5045984;28;20041;-66
2021/06/10 14:11:00;;;;;;;3.72;1.80;;;;;;;;;;5048521;28;20021;-67
2021/06/10 14:13:28;;;;;;;4.28;1.60;;;;;;;;;;5043171;28;20040;-66
2021/06/10 14:15:55;;;;;;;2.45;1.63;;;;;;;;;;5050836;28;20449;-66
2021/06/10 14:18:23;;;;;;;4.88;1.80;;;;;;;;;;5044816;28;20017;-65
2021/06/10 14:20:49;;;;;;;3.97;1.60;;;;;;;;;;5052508;28;20465;-66
2021/06/10 14:23:14;;;;;;;5.15;1.90;;;;;;;;;;5052902;28;20020;-65
2021/06/10 14:25:40;;;;;;;6.80;1.58;;;;;;;;;;5052515;28;20035;-65
2021/06/10 14:28:08;;;;;;;2.63;1.42;;;;;;;;;;5051863;28;20025;-65
2021/06/10 14:30:48;;;;;;;5.25;1.52;;;;;;;;;;5070723;28;20033;-66
2021/06/10 14:33:13;;;;;;;2.53;1.40;;;;;;;;;;5050352;28;20511;-65
2021/06/10 14:35:39;;;;;;;5.10;1.42;;;;;;;;;;5052707;28;20021;-66